Aegean Tiffany — SVAE9 — position and weather

sailwx.info

Track history (hours):
 
Tides and Currents Weather Stations Pressure Air Temp Water Temp Dewpoint Dewpoint Depression Visibility Wind Speed Wind Dir Waves Ship Positions

Aegean Tiffany

Last reported at 2015-Apr-01 03:33 UTC. Time now 2015-Apr-01 04:34 UTC.
Position N 38°02' E 023°31'.

Length 80 m.

Type: Tanker. MMSI: 240870000.

Date/timePositionNaut miles runAvg speedWind from/ knotsBaromVisibWave heightAir tempDewpointWater temp
2015-Apr-01 03:33N 38°02' E 023°31'0 0.0
2015-Apr-01 02:33N 38°02' E 023°31'0 0.0
2015-Apr-01 01:33N 38°02' E 023°31'0 0.0
2015-Apr-01 00:33N 38°02' E 023°31'3 3.2
2015-Mar-31 23:32N 38°00' E 023°28'6 6.5
2015-Mar-31 22:33N 37°57' E 023°21'9 8.5
2015-Mar-31 21:31N 37°54' E 023°10'  
2015-Mar-23 20:19N 37°57' E 023°23'7 6.4
2015-Mar-23 19:18N 38°01' E 023°30'5 0.2
2015-Mar-22 12:33N 37°57' E 023°34'0 0.0
2015-Mar-22 11:32N 37°57' E 023°34'0 0.2
2015-Mar-22 10:33N 37°57' E 023°33'11 3.3
2015-Mar-22 07:16N 37°56' E 023°20'  
Track history (hours):
 
Tides and Currents Weather Stations Pressure Air Temp Water Temp Dewpoint Dewpoint Depression Visibility Wind Speed Wind Dir Waves Ship Positions

Aegean Tiffany

Last reported at 2015-Apr-01 03:33 UTC. Time now 2015-Apr-01 04:34 UTC.
Position N 38°02' E 023°31'.

Length 80 m.

Type: Tanker. MMSI: 240870000.

Date/timePositionNaut miles runAvg speedWind from/ knotsBaromVisibWave heightAir tempDewpointWater temp
2015-Apr-01 03:33N 38°02' E 023°31'0 0.0
2015-Apr-01 02:33N 38°02' E 023°31'0 0.0
2015-Apr-01 01:33N 38°02' E 023°31'0 0.0
2015-Apr-01 00:33N 38°02' E 023°31'3 3.2
2015-Mar-31 23:32N 38°00' E 023°28'6 6.5
2015-Mar-31 22:33N 37°57' E 023°21'9 8.5
2015-Mar-31 21:31N 37°54' E 023°10'  
2015-Mar-23 20:19N 37°57' E 023°23'7 6.4
2015-Mar-23 19:18N 38°01' E 023°30'5 0.2
2015-Mar-22 12:33N 37°57' E 023°34'0 0.0
2015-Mar-22 11:32N 37°57' E 023°34'0 0.2
2015-Mar-22 10:33N 37°57' E 023°33'11 3.3
2015-Mar-22 07:16N 37°56' E 023°20'  

Dump ship's entire track history